createdAt,value
2017-05-23T00:00:31.234Z,62.83
2017-05-23T00:01:41.583Z,63.22
2017-05-23T00:02:51.937Z,63.22
2017-05-23T00:04:02.346Z,63.22
2017-05-23T00:05:12.389Z,63.41
2017-05-23T00:06:22.121Z,62.74
2017-05-23T00:07:32.179Z,62.83
2017-05-23T00:08:41.907Z,62.54
2017-05-23T00:09:52.309Z,62.64
2017-05-23T00:11:02.677Z,62.83
2017-05-23T00:12:12.718Z,62.74
2017-05-23T00:13:23.072Z,63.41
2017-05-23T00:14:33.444Z,63.22
2017-05-23T00:15:43.796Z,63.22
2017-05-23T00:16:53.841Z,63.57
2017-05-23T00:18:04.189Z,63.48
2017-05-23T00:19:14.225Z,63.48
2017-05-23T00:20:23.711Z,63.48
2017-05-23T00:21:34.059Z,63.18
2017-05-23T00:22:44.417Z,63.28
2017-05-23T00:23:54.760Z,63.28
2017-05-23T00:25:05.122Z,63.38
2017-05-23T00:26:15.180Z,63.38
2017-05-23T00:27:24.918Z,63.28
2017-05-23T00:28:35.259Z,63.18
2017-05-23T00:29:45.309Z,62.71
2017-05-23T00:30:55.328Z,63.28
2017-05-23T00:32:05.728Z,63.28
2017-05-23T00:33:15.763Z,62.71
2017-05-23T00:34:26.109Z,63.18
2017-05-23T00:35:36.145Z,62.71
2017-05-23T00:36:46.508Z,63.38
2017-05-23T00:37:56.849Z,63.48
2017-05-23T00:39:07.206Z,63.38
2017-05-23T00:40:17.548Z,63.18
2017-05-23T00:41:27.998Z,63.48
2017-05-23T00:42:38.342Z,63.18
2017-05-23T00:43:48.694Z,63.48
2017-05-23T00:44:59.039Z,63.48
2017-05-23T00:46:09.392Z,63.48
2017-05-23T00:47:19.740Z,63.28
2017-05-23T00:48:30.096Z,63.28
2017-05-23T00:49:39.845Z,63.28
2017-05-23T00:50:50.193Z,63.28
2017-05-23T00:52:00.229Z,63.48
2017-05-23T00:53:10.257Z,63.28
2017-05-23T00:54:20.603Z,63.38
2017-05-23T00:55:30.333Z,63.28
2017-05-23T00:56:40.689Z,63.18
2017-05-23T00:57:50.733Z,63.48
2017-05-23T00:59:00.445Z,63.28
2017-05-23T01:00:10.795Z,63.09
2017-05-23T01:01:21.139Z,63.18
2017-05-23T01:02:31.188Z,63.48
2017-05-23T01:03:41.532Z,63.48
2017-05-23T01:04:51.637Z,63.18
2017-05-23T01:06:02.001Z,63.57
2017-05-23T01:07:11.743Z,63.28
2017-05-23T01:08:22.115Z,63.28
2017-05-23T01:09:32.148Z,63.18
2017-05-23T01:10:42.248Z,63.48
2017-05-23T01:11:52.611Z,63.28
2017-05-23T01:13:02.367Z,63.28
2017-05-23T01:14:12.719Z,63.28
2017-05-23T01:15:22.775Z,63.28
2017-05-23T01:16:33.166Z,63.09
2017-05-23T01:17:43.194Z,63.09
2017-05-23T01:18:53.246Z,63.18
2017-05-23T01:20:02.979Z,63.28
2017-05-23T01:21:13.355Z,63.28
2017-05-23T01:22:23.752Z,63.18
2017-05-23T01:23:34.096Z,63.57
2017-05-23T01:24:44.448Z,63.38
2017-05-23T01:25:54.501Z,63.18
2017-05-23T01:27:04.847Z,63.18
2017-05-23T01:28:14.866Z,63.57
2017-05-23T01:29:25.233Z,63.09
2017-05-23T01:30:35.585Z,63.67
2017-05-23T01:31:45.959Z,63.48
2017-05-23T01:32:56.310Z,63.38
2017-05-23T01:34:06.384Z,63.57
2017-05-23T01:35:16.502Z,63.57
2017-05-23T01:36:26.864Z,63.57
2017-05-23T01:37:37.229Z,63.57
2017-05-23T01:38:47.586Z,63.48
2017-05-23T01:39:57.626Z,63.67
2017-05-23T01:41:07.975Z,63.48
2017-05-23T01:42:18.020Z,63.48
2017-05-23T01:43:28.366Z,63.48
2017-05-23T01:44:38.711Z,63.57
2017-05-23T01:45:49.061Z,63.28
2017-05-23T01:46:59.411Z,63.67
2017-05-23T01:48:09.757Z,63.48
2017-05-23T01:49:19.849Z,63.57
2017-05-23T01:50:30.220Z,63.48
2017-05-23T01:51:40.579Z,63.38
2017-05-23T01:52:51.001Z,63.38
2017-05-23T01:54:01.359Z,63.48
2017-05-23T01:55:11.395Z,63.57
2017-05-23T01:56:21.759Z,63.48
2017-05-23T01:57:31.780Z,63.48
2017-05-23T01:58:42.187Z,63.18
2017-05-23T01:59:52.246Z,63.09
2017-05-23T02:01:02.593Z,63.18
2017-05-23T02:02:12.944Z,63.28
2017-05-23T02:03:23.299Z,63.28
2017-05-23T02:04:33.351Z,63.28
2017-05-23T02:05:43.696Z,63.18
2017-05-23T02:06:54.054Z,63.18
2017-05-23T02:08:04.090Z,63.18
2017-05-23T02:09:14.443Z,63.28
2017-05-23T02:10:24.850Z,63.57
2017-05-23T02:11:35.200Z,63.57
2017-05-23T02:12:45.553Z,63.57
2017-05-23T02:13:55.913Z,63.38
2017-05-23T02:15:06.256Z,63.57
2017-05-23T02:16:16.297Z,63.48
2017-05-23T02:17:26.335Z,63.48
2017-05-23T02:18:36.431Z,63.38
2017-05-23T02:19:46.793Z,63.48
2017-05-23T02:20:57.155Z,63.48
2017-05-23T02:22:07.501Z,63.09
2017-05-23T02:23:17.857Z,63.28
2017-05-23T02:24:28.273Z,63.48
2017-05-23T02:25:38.625Z,63.28
2017-05-23T02:26:49.007Z,63.18
2017-05-23T02:27:59.366Z,63.48
2017-05-23T02:29:09.718Z,63.28
2017-05-23T02:30:20.119Z,63.48
2017-05-23T02:31:30.142Z,63.18
2017-05-23T02:32:40.507Z,63.28
2017-05-23T02:33:50.912Z,63.09
2017-05-23T02:35:00.962Z,63.48
2017-05-23T02:36:11.313Z,63.28
2017-05-23T02:37:21.339Z,63.28
2017-05-23T02:38:30.753Z,63.18
2017-05-23T02:39:41.108Z,63.18
2017-05-23T02:40:51.145Z,63.28
2017-05-23T02:42:00.915Z,63.09
2017-05-23T02:43:11.287Z,63.38
2017-05-23T02:44:21.629Z,63.57
2017-05-23T02:45:31.989Z,63.45
2017-05-23T02:46:42.328Z,63.35
2017-05-23T02:47:52.745Z,63.15
2017-05-23T02:49:02.798Z,63.25
2017-05-23T02:50:12.823Z,63.15
2017-05-23T02:51:22.861Z,63.25
2017-05-23T02:52:33.226Z,63.64
2017-05-23T02:53:43.313Z,63.54
2017-05-23T02:54:53.700Z,63.45
2017-05-23T02:56:04.059Z,63.25
2017-05-23T02:57:14.399Z,63.45
2017-05-23T02:58:24.752Z,63.25
2017-05-23T02:59:34.787Z,63.15
2017-05-23T03:00:45.143Z,63.35
2017-05-23T03:01:55.187Z,63.35
2017-05-23T03:33:13.101Z,60.25
2017-05-23T03:34:23.126Z,60.15
2017-05-23T03:35:33.158Z,60.53
2017-05-23T03:36:43.185Z,61.59
2017-05-23T03:37:53.526Z,61.98
2017-05-23T03:39:03.567Z,62.07
2017-05-23T03:40:13.603Z,62.58
2017-05-23T03:41:23.947Z,63.16
2017-05-23T03:42:34.279Z,63.09
2017-05-23T03:43:44.323Z,63.48
2017-05-23T03:44:54.397Z,63.48
2017-05-23T03:46:04.424Z,63.6
2017-05-23T03:47:14.775Z,63.51
2017-05-23T03:48:24.813Z,63.64
2017-05-23T03:49:35.160Z,63.15
2017-05-23T03:50:45.215Z,63.28
2017-05-23T03:51:55.621Z,63.18
2017-05-23T03:53:05.653Z,62.9
2017-05-23T03:54:16.006Z,62.93
2017-05-23T03:55:26.357Z,62.83
2017-05-23T03:56:36.451Z,62.57
2017-05-23T03:57:46.806Z,62.29
2017-05-23T03:58:57.179Z,62.67
2017-05-23T04:00:07.522Z,62.38
2017-05-23T04:01:17.863Z,62.6
2017-05-23T04:02:27.627Z,62.7
2017-05-23T04:03:37.689Z,62.63
2017-05-23T04:04:47.733Z,62.63
2017-05-23T04:05:57.773Z,62.83
2017-05-23T04:07:07.822Z,62.25
2017-05-23T04:08:18.167Z,62.25
2017-05-23T04:09:27.894Z,62.25
2017-05-23T04:10:37.930Z,62.38
2017-05-23T04:11:48.357Z,62.28
2017-05-23T04:12:58.703Z,62.28
2017-05-23T04:14:08.489Z,62.18
2017-05-23T04:15:18.837Z,61.83
2017-05-23T04:16:28.560Z,61.93
2017-05-23T04:17:38.612Z,61.86
2017-05-23T04:18:48.647Z,61.77
2017-05-23T04:19:58.997Z,61.09
2017-05-23T04:21:08.718Z,60.73
2017-05-23T04:22:19.068Z,60.38
2017-05-23T04:23:29.419Z,60.6
2017-05-23T04:24:39.772Z,60.14
2017-05-23T04:25:50.125Z,60.37
2017-05-23T04:27:00.467Z,60.66
2017-05-23T04:28:10.836Z,60.21
2017-05-23T04:29:20.859Z,59.94
2017-05-23T04:30:31.210Z,59.66
2017-05-23T04:31:41.248Z,59.78
2017-05-23T04:32:51.349Z,59.91
2017-05-23T04:34:01.711Z,59.61
2017-05-23T04:35:12.097Z,60.13
2017-05-23T04:36:22.455Z,59.64
2017-05-23T04:37:32.806Z,60.03
2017-05-23T04:38:43.201Z,60.71
2017-05-23T04:39:53.564Z,60.97
2017-05-23T04:41:03.916Z,61.43
2017-05-23T04:42:14.284Z,61.43
2017-05-23T04:43:24.640Z,62.27
2017-05-23T04:44:35.007Z,62.46
2017-05-23T04:45:45.043Z,61.85
2017-05-23T04:46:55.400Z,61.88
2017-05-23T04:48:05.439Z,61.49
2017-05-23T04:49:15.854Z,61.88
2017-05-23T04:50:25.903Z,61.59
2017-05-23T04:51:35.960Z,61.88
2017-05-23T04:52:46.012Z,61.3
2017-05-23T04:53:56.051Z,61.4
2017-05-23T04:55:06.139Z,60.85
2017-05-23T04:56:16.228Z,60.75
2017-05-23T04:57:26.601Z,60.65
2017-05-23T04:58:36.947Z,61.07
2017-05-23T04:59:47.052Z,61.26
2017-05-23T05:00:57.459Z,60.97
2017-05-23T05:02:07.514Z,60.68
2017-05-23T05:03:17.861Z,60.32
2017-05-23T05:04:27.902Z,60.64
2017-05-23T05:05:38.265Z,60.16
2017-05-23T05:06:48.316Z,59.8
2017-05-23T05:07:58.667Z,60.58
2017-05-23T05:09:09.027Z,61.07
2017-05-23T05:10:19.374Z,60.48
2017-05-23T05:11:29.721Z,60.87
2017-05-23T05:12:40.144Z,60.8
2017-05-23T05:13:50.495Z,60.97
2017-05-23T05:15:00.218Z,61.52
2017-05-23T05:16:10.257Z,61.32
2017-05-23T05:17:20.293Z,61.04
2017-05-23T05:18:30.687Z,61.22
2017-05-23T05:19:41.027Z,61.42
2017-05-23T05:20:51.392Z,61.58
2017-05-23T05:22:01.112Z,62.07
2017-05-23T05:23:11.479Z,61.68
2017-05-23T05:24:21.887Z,62.36
2017-05-23T05:25:32.259Z,62.23
2017-05-23T05:26:42.598Z,62.52
2017-05-23T05:27:52.654Z,62.82
2017-05-23T05:29:02.692Z,62.59
2017-05-23T05:30:12.800Z,62.49
2017-05-23T05:31:23.167Z,62.79
2017-05-23T05:32:33.515Z,62.59
2017-05-23T05:33:43.877Z,62.2
2017-05-23T05:34:54.233Z,61.91
2017-05-23T05:36:04.331Z,62.2
2017-05-23T05:37:14.686Z,62.69
2017-05-23T05:38:25.044Z,61.62
2017-05-23T05:39:35.080Z,62.59
2017-05-23T05:40:45.125Z,61.43
2017-05-23T05:41:55.518Z,61.72
2017-05-23T05:43:05.560Z,62.59
2017-05-23T05:44:15.942Z,62.49
2017-05-23T05:45:26.303Z,62.1
2017-05-23T05:46:36.658Z,62.4
2017-05-23T05:47:46.706Z,62.27
2017-05-23T05:48:57.081Z,62.46
2017-05-23T05:50:07.441Z,62.17
2017-05-23T05:51:17.495Z,61.88
2017-05-23T05:52:27.830Z,61.98
2017-05-23T05:53:38.236Z,62.07
2017-05-23T05:54:48.594Z,62.07
2017-05-23T05:55:58.939Z,61.98
2017-05-23T05:57:09.003Z,62.07
2017-05-23T05:58:19.093Z,61.98
2017-05-23T05:59:29.143Z,62.07
2017-05-23T06:00:39.188Z,62.07
2017-05-23T06:01:49.233Z,62.17
2017-05-23T06:02:59.284Z,62.17
2017-05-23T06:04:09.645Z,62.17
2017-05-23T06:05:20.044Z,62.37
2017-05-23T06:06:30.081Z,62.46
2017-05-23T06:07:40.112Z,62.37
2017-05-23T06:08:50.139Z,62.46
2017-05-23T06:09:59.924Z,62.46
2017-05-23T06:11:09.961Z,62.46
2017-05-23T06:12:20.323Z,61.69
2017-05-23T06:13:30.674Z,62.37
2017-05-23T06:14:41.021Z,61.49
2017-05-23T06:15:51.066Z,61.88
2017-05-23T06:17:01.421Z,61.49
2017-05-23T06:18:11.464Z,61.21
2017-05-23T06:19:21.832Z,61.4
2017-05-23T06:20:31.876Z,61.49
2017-05-23T06:21:42.285Z,61.49
2017-05-23T06:22:52.676Z,61.4
2017-05-23T06:24:03.018Z,61.4
2017-05-23T06:25:12.742Z,61.33
2017-05-23T06:26:23.098Z,61.43
2017-05-23T06:27:33.459Z,61.4
2017-05-23T06:28:43.879Z,61.33
2017-05-23T06:29:53.940Z,61.24
2017-05-23T06:31:04.297Z,61.24
2017-05-23T06:32:14.645Z,61.33
2017-05-23T06:33:24.696Z,61.24
2017-05-23T06:34:35.042Z,61.24
2017-05-23T06:35:44.776Z,61.36
2017-05-23T06:36:55.132Z,60.97
2017-05-23T06:38:05.533Z,60.68
2017-05-23T06:39:15.897Z,61.46
2017-05-23T06:40:26.017Z,61.26
2017-05-23T06:41:36.369Z,60.88
2017-05-23T06:42:46.720Z,61.29
2017-05-23T06:43:57.081Z,61.29
2017-05-23T06:45:07.129Z,61.19
2017-05-23T06:46:17.214Z,61.1
2017-05-23T06:47:27.552Z,61.19
2017-05-23T06:48:37.590Z,60.23
2017-05-23T06:49:47.641Z,60.71
2017-05-23T06:50:57.994Z,60.91
2017-05-23T06:52:07.740Z,61.22
2017-05-23T06:53:17.777Z,60.94
2017-05-23T06:54:27.508Z,60.94
2017-05-23T06:55:37.544Z,60.84
2017-05-23T06:56:47.900Z,61.16
2017-05-23T06:57:58.263Z,60.68
2017-05-23T06:59:08.805Z,60.71
2017-05-23T07:00:19.151Z,60.61
2017-05-23T07:01:29.508Z,60.61
2017-05-23T07:02:39.249Z,60.44
2017-05-23T07:03:49.604Z,60.44
2017-05-23T07:04:59.955Z,60.35
2017-05-23T07:06:10.308Z,60.25
2017-05-23T07:07:20.702Z,59.95
2017-05-23T07:08:30.767Z,59.76
2017-05-23T07:09:40.811Z,59.99
2017-05-23T07:10:50.857Z,59.59
2017-05-23T07:12:01.214Z,59.43
2017-05-23T07:13:11.256Z,59.43
2017-05-23T07:14:21.318Z,59.27
2017-05-23T07:15:31.360Z,58.59
2017-05-23T07:16:41.695Z,58.42
2017-05-23T07:17:52.048Z,58.22
2017-05-23T07:19:01.787Z,58.25
2017-05-23T07:20:12.201Z,58.35
2017-05-23T07:21:22.578Z,58.28
2017-05-23T07:22:33.020Z,58.58
2017-05-23T07:23:43.379Z,59.06
2017-05-23T07:24:53.466Z,59.16
2017-05-23T07:26:03.886Z,58.77
2017-05-23T07:27:13.925Z,58.97
2017-05-23T07:28:24.339Z,59.26
2017-05-23T07:29:34.403Z,59.26
2017-05-23T07:30:44.768Z,59.55
2017-05-23T07:31:55.175Z,59.06
2017-05-23T07:33:05.523Z,60.03
2017-05-23T07:34:15.553Z,60
2017-05-23T07:35:25.915Z,59.91
2017-05-23T07:36:36.271Z,59.91
2017-05-23T07:37:46.622Z,60.1
2017-05-23T07:38:56.981Z,59.91
2017-05-23T07:40:07.049Z,59.72
2017-05-23T07:41:17.410Z,59.81
2017-05-23T07:42:27.766Z,59.55
2017-05-23T07:43:37.871Z,59.74
2017-05-23T07:44:48.245Z,58.67
2017-05-23T07:45:58.619Z,58.6
2017-05-23T07:47:08.979Z,58.44
2017-05-23T07:48:19.341Z,58.37
2017-05-23T07:49:29.115Z,58.83
2017-05-23T07:50:39.478Z,59.61
2017-05-23T07:51:49.844Z,59.51
2017-05-23T07:52:59.889Z,60.26
2017-05-23T07:54:10.256Z,59.97
2017-05-23T07:55:20.031Z,60.06
2017-05-23T07:56:30.400Z,59.87
2017-05-23T07:57:40.764Z,59.28
2017-05-23T07:58:50.806Z,59.67
2017-05-23T08:00:01.199Z,59.61
2017-05-23T08:01:11.615Z,59.61
2017-05-23T08:02:21.969Z,59.41
2017-05-23T08:03:32.327Z,59.51
2017-05-23T08:04:42.694Z,59.7
2017-05-23T08:05:52.751Z,59.61
2017-05-23T08:07:03.161Z,59.41
2017-05-23T08:08:13.197Z,59.34
2017-05-23T08:09:23.548Z,59.64
2017-05-23T08:10:33.590Z,59.74
2017-05-23T08:11:43.954Z,59.64
2017-05-23T08:12:54.357Z,59.7
2017-05-23T08:14:04.161Z,59.7
2017-05-23T08:15:14.540Z,59.7
2017-05-23T08:16:24.571Z,59.61
2017-05-23T08:17:34.913Z,59.51
2017-05-23T08:18:45.293Z,59.51
2017-05-23T08:19:55.667Z,59.7
2017-05-23T08:21:06.030Z,59.7
2017-05-23T08:22:15.760Z,59.51
2017-05-23T08:23:26.128Z,60
2017-05-23T08:24:35.905Z,59.97
2017-05-23T08:25:46.277Z,59.97
2017-05-23T08:26:56.329Z,59.87
2017-05-23T08:28:06.683Z,59.87
2017-05-23T08:29:16.742Z,59.84
2017-05-23T08:30:26.845Z,59.94
2017-05-23T08:31:37.194Z,60.03
2017-05-23T08:32:47.544Z,60.13
2017-05-23T08:33:57.594Z,59.87
2017-05-23T08:35:07.956Z,59.97
2017-05-23T08:36:18.367Z,59.67
2017-05-23T08:37:28.742Z,60.26
2017-05-23T08:38:39.090Z,60.26
2017-05-23T08:39:48.506Z,59.19
2017-05-23T08:40:58.891Z,59.38
2017-05-23T08:42:09.263Z,59.28
2017-05-23T08:43:19.617Z,59.48
2017-05-23T08:44:29.988Z,59.38
2017-05-23T08:45:40.357Z,59.48
2017-05-23T08:46:50.714Z,59.58
2017-05-23T08:48:00.750Z,59.58
2017-05-23T08:49:11.115Z,59.55
2017-05-23T08:50:21.464Z,59.58
2017-05-23T08:51:31.820Z,59.74
2017-05-23T08:52:42.194Z,59.64
2017-05-23T08:53:52.315Z,59.64
2017-05-23T08:55:02.691Z,59.45
2017-05-23T08:56:12.732Z,59.45
2017-05-23T08:57:22.797Z,59.35
2017-05-23T08:58:33.149Z,59.64
2017-05-23T08:59:42.932Z,59.38
2017-05-23T09:00:53.295Z,59.28
2017-05-23T09:02:03.351Z,59.67
2017-05-23T09:03:13.713Z,59.38
2017-05-23T09:04:24.060Z,59.58
2017-05-23T09:05:34.421Z,59.58
2017-05-23T09:06:44.768Z,59.48
2017-05-23T09:07:55.115Z,59.61
2017-05-23T09:09:05.467Z,59.22
2017-05-23T09:10:15.813Z,58.83
2017-05-23T09:11:25.933Z,58.92
2017-05-23T09:12:36.285Z,59.44
2017-05-23T09:13:46.339Z,58.95
2017-05-23T09:14:56.381Z,58.95
2017-05-23T09:16:06.731Z,59.34
2017-05-23T09:17:16.844Z,59.64
2017-05-23T09:18:27.210Z,59.51
2017-05-23T09:19:37.560Z,59.34
2017-05-23T09:20:47.918Z,59.44
2017-05-23T09:21:57.955Z,59.31
2017-05-23T09:23:08.314Z,59.7
2017-05-23T09:24:18.347Z,59.74
2017-05-23T09:25:28.707Z,59.54
2017-05-23T09:26:39.052Z,59.54
2017-05-23T09:27:48.793Z,59.64
2017-05-23T09:28:58.522Z,59.74
2017-05-23T09:30:08.873Z,59.15
2017-05-23T09:31:18.932Z,59.54
2017-05-23T09:32:29.286Z,59.64
2017-05-23T09:33:39.674Z,59.44
2017-05-23T09:34:50.034Z,59.54
2017-05-23T09:36:00.387Z,59.54
2017-05-23T09:37:10.764Z,59.44
2017-05-23T09:38:21.128Z,59.54
2017-05-23T09:39:31.500Z,59.74
2017-05-23T09:40:41.876Z,59.15
2017-05-23T09:41:51.932Z,58.89
2017-05-23T09:43:01.983Z,58.89
2017-05-23T09:44:12.332Z,58.59
2017-05-23T09:45:22.685Z,58.89
2017-05-23T09:46:32.803Z,58.72
2017-05-23T09:47:42.840Z,58.62
2017-05-23T09:48:53.206Z,58.52
2017-05-23T09:50:03.575Z,58.36
2017-05-23T09:51:13.945Z,58.75
2017-05-23T09:52:23.990Z,58.45
2017-05-23T09:53:34.347Z,57.97
2017-05-23T09:54:44.403Z,57.99
2017-05-23T09:55:54.778Z,57.79
2017-05-23T09:57:05.144Z,57.99
2017-05-23T09:58:14.927Z,58.09
2017-05-23T09:59:24.669Z,57.89
2017-05-23T10:00:34.750Z,58.31
2017-05-23T10:01:44.806Z,58.22
2017-05-23T10:02:55.155Z,58.02
2017-05-23T10:04:05.661Z,58.02
2017-05-23T10:05:16.016Z,58.58
2017-05-23T10:06:26.369Z,58.58
2017-05-23T10:07:36.733Z,58.58
2017-05-23T10:08:47.084Z,58.94
2017-05-23T10:09:57.502Z,58.75
2017-05-23T10:11:07.261Z,58.55
2017-05-23T10:12:17.610Z,59.33
2017-05-23T10:13:27.965Z,59.04
2017-05-23T10:14:38.317Z,59.01
2017-05-23T10:15:48.761Z,59.2
2017-05-23T10:16:58.802Z,59.79
2017-05-23T10:18:09.157Z,59.77
2017-05-23T10:19:19.757Z,59.89
2017-05-23T10:20:29.803Z,59.38
2017-05-23T10:21:40.179Z,60.25
2017-05-23T10:22:50.543Z,60.25
2017-05-23T10:24:00.895Z,60.35
2017-05-23T10:25:11.246Z,60.06
2017-05-23T10:26:21.291Z,60.06
2017-05-23T10:27:31.680Z,60.06
2017-05-23T10:28:42.035Z,60.25
2017-05-23T10:29:52.400Z,60.16
2017-05-23T10:31:02.757Z,60.03
2017-05-23T10:32:13.112Z,60.13
2017-05-23T10:33:23.219Z,60.13
2017-05-23T10:34:33.600Z,60.03
2017-05-23T10:35:43.965Z,60.03
2017-05-23T10:36:54.321Z,60.22
2017-05-23T10:38:04.374Z,60.68
2017-05-23T10:39:14.778Z,60.58
2017-05-23T10:40:24.839Z,61.27
2017-05-23T10:41:35.197Z,61.24
2017-05-23T10:42:45.546Z,61.14
2017-05-23T10:43:55.906Z,61.04
2017-05-23T10:45:06.322Z,61.01
2017-05-23T10:46:16.698Z,61.21
2017-05-23T10:47:27.037Z,61.6
2017-05-23T10:48:37.392Z,61.27
2017-05-23T10:49:47.135Z,61.57
2017-05-23T10:50:57.224Z,60.78
2017-05-23T10:52:07.583Z,61.08
2017-05-23T10:53:17.959Z,60.42
2017-05-23T10:54:27.996Z,60.06
2017-05-23T10:55:38.034Z,60.16
2017-05-23T10:56:48.130Z,59.97
2017-05-23T10:57:58.156Z,60.19
2017-05-23T10:59:08.198Z,60.29
2017-05-23T11:00:17.935Z,60.29
2017-05-23T11:01:27.982Z,60.03
2017-05-23T11:02:38.386Z,60.13
2017-05-23T11:03:48.744Z,60.03
2017-05-23T11:04:59.107Z,60.03
2017-05-23T11:06:09.170Z,59.93
2017-05-23T11:07:19.525Z,60.22
2017-05-23T11:08:29.945Z,60.22
2017-05-23T11:09:40.319Z,60.13
2017-05-23T11:10:50.047Z,59.93
2017-05-23T11:12:00.115Z,59.93
2017-05-23T11:13:10.483Z,60.13
2017-05-23T11:14:20.735Z,60.16
2017-05-23T11:15:31.107Z,60.16
2017-05-23T11:16:41.453Z,60.06
2017-05-23T11:17:51.816Z,60.06
2017-05-23T11:19:02.168Z,60.16
2017-05-23T11:20:12.581Z,60.06
2017-05-23T11:21:22.941Z,60.08
2017-05-23T11:22:33.305Z,60.08
2017-05-23T11:23:43.666Z,60.08
2017-05-23T11:24:54.021Z,60.11
2017-05-23T11:26:04.098Z,60.08
2017-05-23T11:27:13.831Z,60.21
2017-05-23T11:28:24.186Z,60.21
2017-05-23T11:29:34.537Z,60.11
2017-05-23T11:30:44.586Z,60.7
2017-05-23T11:31:54.703Z,60.41
2017-05-23T11:33:05.068Z,60.57
2017-05-23T11:34:15.414Z,60.41
2017-05-23T11:35:25.783Z,60.02
2017-05-23T11:36:36.161Z,60.31
2017-05-23T11:37:46.513Z,60.11
2017-05-23T11:38:56.859Z,60.14
2017-05-23T11:40:07.214Z,60.57
2017-05-23T11:41:16.943Z,60.37
2017-05-23T11:42:26.996Z,60.17
2017-05-23T11:43:36.782Z,60.17
2017-05-23T11:44:47.132Z,60.08
2017-05-23T11:45:56.562Z,60.66
2017-05-23T11:47:06.968Z,60.44
2017-05-23T11:48:17.023Z,60.44
2017-05-23T11:49:27.435Z,60.76
2017-05-23T11:50:37.478Z,60.63
2017-05-23T11:51:47.856Z,60.08
2017-05-23T11:52:57.587Z,60.17
2017-05-23T11:54:07.942Z,60.17
2017-05-23T11:55:18.349Z,60.37
2017-05-23T11:56:28.403Z,60.08
2017-05-23T11:57:38.464Z,60.17
2017-05-23T11:58:48.839Z,60.17
2017-05-23T11:59:59.201Z,60.66
2017-05-23T12:01:09.316Z,60.76
2017-05-23T12:02:19.692Z,60.37
2017-05-23T12:03:29.438Z,60.27
2017-05-23T12:04:39.468Z,60.57
2017-05-23T12:05:49.812Z,60.47
2017-05-23T12:06:59.922Z,60.5
2017-05-23T12:08:10.294Z,60.3
2017-05-23T12:09:20.663Z,60.21
2017-05-23T12:10:31.007Z,60.21
2017-05-23T12:11:41.365Z,60.1
2017-05-23T12:12:51.793Z,60.4
2017-05-23T12:14:02.141Z,60.23
2017-05-23T12:15:12.504Z,59.94
2017-05-23T12:16:22.568Z,59.94
2017-05-23T12:17:32.931Z,59.67
2017-05-23T12:18:42.969Z,59.48
2017-05-23T12:19:52.720Z,60.42
2017-05-23T12:21:02.768Z,60.33
2017-05-23T12:22:13.142Z,60.36
2017-05-23T12:23:22.880Z,61.41
2017-05-23T12:24:33.328Z,61.83
2017-05-23T12:25:43.378Z,61.15
2017-05-23T12:26:53.748Z,61.44
2017-05-23T12:28:04.106Z,61.32
2017-05-23T12:29:14.475Z,61.22
2017-05-23T12:30:24.576Z,61.44
2017-05-23T12:31:34.929Z,61.51
2017-05-23T12:32:45.313Z,61.02
2017-05-23T12:33:55.681Z,60.27
2017-05-23T12:35:05.752Z,60
2017-05-23T12:36:16.110Z,60.33
2017-05-23T12:37:26.462Z,59.84
2017-05-23T12:38:36.507Z,60.75
2017-05-23T12:39:46.248Z,61.28
2017-05-23T12:40:56.621Z,61.93
2017-05-23T12:42:06.977Z,62.19
2017-05-23T12:43:17.032Z,60.8
2017-05-23T12:44:27.598Z,60.83
2017-05-23T12:45:38.161Z,61.54
2017-05-23T12:46:48.752Z,61.05
2017-05-23T12:47:59.157Z,60.76
2017-05-23T12:49:09.523Z,61.05
2017-05-23T12:50:19.882Z,61.54
2017-05-23T12:51:30.242Z,61.51
2017-05-23T12:52:40.278Z,61.48
2017-05-23T12:53:50.655Z,61.97
2017-05-23T12:55:01.022Z,61.48
2017-05-23T12:56:11.414Z,61.94
2017-05-23T12:57:21.475Z,62.13
2017-05-23T12:58:31.529Z,61.91
2017-05-23T12:59:41.626Z,62.01
2017-05-23T13:00:51.685Z,61.82
2017-05-23T13:02:01.741Z,61.62
2017-05-23T13:03:12.115Z,61.82
2017-05-23T13:04:22.161Z,62.01
2017-05-23T13:05:32.573Z,61.62
2017-05-23T13:06:42.943Z,61.33
2017-05-23T13:07:53.328Z,61.45
2017-05-23T13:09:03.374Z,61.82
2017-05-23T13:10:13.436Z,61.62
2017-05-23T13:11:23.542Z,61.62
2017-05-23T13:12:33.890Z,61.52
2017-05-23T13:13:44.263Z,61.69
2017-05-23T13:14:54.333Z,61.62
2017-05-23T13:16:04.700Z,61.52
2017-05-23T13:17:14.791Z,61.82
2017-05-23T13:18:25.154Z,60.74
2017-05-23T13:19:35.522Z,60.84
2017-05-23T13:20:45.903Z,61.23
2017-05-23T13:21:56.264Z,61.13
2017-05-23T13:23:06.667Z,61.13
2017-05-23T13:24:17.044Z,61.23
2017-05-23T13:25:27.429Z,61.33
2017-05-23T13:26:37.790Z,60.57
2017-05-23T13:27:47.849Z,60.38
2017-05-23T13:28:57.633Z,60.11
2017-05-23T13:30:08.002Z,60.05
2017-05-23T13:31:17.757Z,60.05
2017-05-23T13:32:27.820Z,60.34
2017-05-23T13:33:37.862Z,60.34
2017-05-23T13:34:48.240Z,60.14
2017-05-23T13:35:58.605Z,59.59
2017-05-23T13:37:08.961Z,59.69
2017-05-23T13:38:19.350Z,59.88
2017-05-23T13:39:29.745Z,59.42
2017-05-23T13:40:40.165Z,59.52
2017-05-23T13:41:50.198Z,59.16
2017-05-23T13:43:00.558Z,58.67
2017-05-23T13:44:10.618Z,58.86
2017-05-23T13:45:20.989Z,58.5
2017-05-23T13:46:31.396Z,58.89
2017-05-23T13:47:41.754Z,58.59
2017-05-23T13:48:52.124Z,59.08
2017-05-23T13:50:02.466Z,58.82
2017-05-23T13:51:12.214Z,58.72
2017-05-23T13:52:22.579Z,59.01
2017-05-23T13:53:32.940Z,58.82
2017-05-23T13:54:43.290Z,59.21
2017-05-23T13:55:53.366Z,59.21
2017-05-23T13:57:03.425Z,59.41
2017-05-23T13:58:13.531Z,59.41
2017-05-23T13:59:23.897Z,60.1
2017-05-23T14:00:34.253Z,59.7
2017-05-23T14:01:44.303Z,59.8
2017-05-23T14:02:54.047Z,59.9
2017-05-23T14:04:04.468Z,59.8
2017-05-23T14:05:14.516Z,59.87
2017-05-23T14:06:24.877Z,59.97
2017-05-23T14:07:35.200Z,59.87
2017-05-23T14:08:44.902Z,60.52
2017-05-23T14:09:55.331Z,59.94
2017-05-23T14:11:05.732Z,60.46
2017-05-23T14:12:16.091Z,59.97
2017-05-23T14:13:26.452Z,59.94
2017-05-23T14:14:36.219Z,59.94
2017-05-23T14:15:46.599Z,60.23
2017-05-23T14:16:56.650Z,60.42
2017-05-23T14:18:06.722Z,60.33
2017-05-23T14:19:17.124Z,60.23
2017-05-23T14:20:27.178Z,60.23
2017-05-23T14:21:37.569Z,60.23
2017-05-23T14:22:47.927Z,60
2017-05-23T14:23:58.324Z,60.21
2017-05-23T14:25:08.709Z,60.3
2017-05-23T14:26:18.754Z,60
2017-05-23T14:27:29.177Z,60.52
2017-05-23T14:28:39.742Z,60.33
2017-05-23T14:29:50.105Z,60.3
2017-05-23T14:31:00.492Z,60
2017-05-23T14:32:10.529Z,60.3
2017-05-23T14:33:20.974Z,60.4
2017-05-23T14:34:31.368Z,60.21
2017-05-23T14:35:41.446Z,60.3
2017-05-23T14:36:51.841Z,60.17
2017-05-23T14:38:02.238Z,60.37
2017-05-23T14:39:12.758Z,60.27
2017-05-23T14:40:22.911Z,60.08
2017-05-23T14:41:33.399Z,60.37
2017-05-23T14:42:43.824Z,59.59
2017-05-23T14:43:54.224Z,59.61
2017-05-23T14:45:04.631Z,59.32
2017-05-23T14:46:14.997Z,60.13
2017-05-23T14:47:25.068Z,60.5
2017-05-23T14:48:35.111Z,60.66
2017-05-23T14:49:45.367Z,61.12
2017-05-23T14:50:55.780Z,61.12
2017-05-23T14:52:05.841Z,60.89
2017-05-23T14:53:16.262Z,61.16
2017-05-23T14:54:26.330Z,61.65
2017-05-23T14:55:36.396Z,61.72
2017-05-23T14:56:46.446Z,61.23
2017-05-23T14:57:56.799Z,61.23
2017-05-23T14:59:06.847Z,61.72
2017-05-23T15:00:16.890Z,61.13
2017-05-23T15:01:27.255Z,60.84
2017-05-23T15:02:37.656Z,61.72
2017-05-23T15:03:48.019Z,61.72
2017-05-23T15:04:58.092Z,60.94
2017-05-23T15:06:08.466Z,60.91
2017-05-23T15:07:18.520Z,61.3
2017-05-23T15:08:28.876Z,61.59
2017-05-23T15:09:39.256Z,61.46
2017-05-23T15:10:49.629Z,61.27
2017-05-23T15:11:59.666Z,61.46
2017-05-23T15:13:10.032Z,61.17
2017-05-23T15:14:20.130Z,61.56
2017-05-23T15:15:30.183Z,61.76
2017-05-23T15:16:40.243Z,61.85
2017-05-23T15:17:50.605Z,61.66
2017-05-23T15:19:00.958Z,61.66
2017-05-23T15:20:10.743Z,61.66
2017-05-23T15:21:20.814Z,61.27
2017-05-23T15:22:31.173Z,61.36
2017-05-23T15:23:41.556Z,60.97
2017-05-23T15:24:51.980Z,61.07
2017-05-23T15:26:02.386Z,61.2
2017-05-23T15:27:12.735Z,61.2
2017-05-23T15:28:22.806Z,61.33
2017-05-23T15:29:32.873Z,61.04
2017-05-23T15:30:43.235Z,60.84
2017-05-23T15:31:53.654Z,61.13
2017-05-23T15:33:04.014Z,60.77
2017-05-23T15:34:14.381Z,60.64
2017-05-23T15:35:24.434Z,59.99
2017-05-23T15:36:34.485Z,60.08